Position Fahrer Laps Zeit Diff Beste Runde Fahrzeug Status Gesamt Bonuspunkte Strafpunkte
1 (2) Dietmar Scholz 20 30:59.813 - 1:31.317 Ford Zakspeed Capri Beendet 60 0 0
2 (1) Eric Nieth 20 31:24.893 0:25.080 1:31.055 BMW 320 Turbo Beendet 55 0 0
3 (7) André G. 20 31:27.237 0:27.424 1:32.689 Ford Zakspeed Capri Beendet 51 0 0
4 (3) Alex Krueger 20 31:32.568 0:32.755 1:32.395 Ford Zakspeed Capri Beendet 48 0 0
- 5 (5) Nils Herbstrieth 20 31:39.182 0:39.369 1:33.321 Fabcar Engineering 935 Beendet 46 0 0
- 6 (6) Tino Kerkow 20 31:44.703 0:44.890 1:33.174 Fabcar Engineering 935 Beendet 44 0 0
7 (4) Christian Baedorf 20 31:53.989 0:54.176 1:33.780 Fabcar Engineering 935 Beendet 42 0 0
8 (9) Gerd Haarkamp 20 32:23.902 1:24.089 1:34.838 BMW 320 Turbo Beendet 40 0 0
9 (10) Stefan Schreiner 19 31:52.433 -1L 1:36.662 Nissan Skyline 2000RS Beendet 38 0 0
10 (12) Nils Schubert 16 31:38.754 -4L 1:42.814 Ford Zakspeed Capri Beendet 36 0 0
- 11 (11) Jürgen Tippe 13 21:40.102 -7L 1:35.907 Chevrolet Dekon Monza DNF 34 0 0
12 (8) Ronny Krey 5 10:02.571 -15L 1:35.590 Ford Zakspeed Capri DNF 33 0 0

Rennverlauf

Qualifying

Pos Fahrer Zeit Diff
1 Eric Nieth 1:31.055 -
2 Dietmar Scholz 1:31.427 0:00.372
3 Alex Krueger 1:31.945 0:00.890
4 Christian Baedorf 1:32.583 0:01.528
5 Nils Herbstrieth 1:32.681 0:01.626
6 Tino Kerkow 1:32.878 0:01.823
7 André G. 1:32.950 0:01.895
8 Ronny Krey 1:34.310 0:03.255
9 Gerd Haarkamp 1:34.901 0:03.846
10 Stefan Schreiner 1:35.915 0:04.860
11 Jürgen Tippe 1:36.723 0:05.668
12 Nils Schubert 1:48.177 0:17.122

Climber

Diff Startpos Endpos Fahrer
4 7 3 André G.
2 12 10 Nils Schubert
1 2 1 Dietmar Scholz
1 9 8 Gerd Haarkamp
1 10 9 Stefan Schreiner
- - 5 5 Nils Herbstrieth
- - 6 6 Tino Kerkow
- - 11 11 Jürgen Tippe
-1 1 2 Eric Nieth
-1 3 4 Alex Krueger
-3 4 7 Christian Baedorf
-4 8 12 Ronny Krey

Die schnellsten 5 pro Runde

Runde 1

Pos Rennpos Fahrer Zeit Diff
1 1 Dietmar Scholz 1:42.928 -
2 2 Eric Nieth 1:43.587 0:00.659
3 3 Christian Baedorf 1:45.744 0:02.816
4 4 Nils Herbstrieth 1:46.377 0:03.449
5 5 Alex Krueger 1:47.038 0:04.110

Runde 2

Pos Rennpos Fahrer Zeit Diff
1 1 Dietmar Scholz 1:32.087 -
2 2 Eric Nieth 1:32.592 0:00.505
3 5 Alex Krueger 1:34.437 0:02.350
4 4 Nils Herbstrieth 1:34.769 0:02.682
5 7 Tino Kerkow 1:35.110 0:03.023

Runde 3

Pos Rennpos Fahrer Zeit Diff
1 1 Dietmar Scholz 1:31.583 -
2 2 Eric Nieth 1:31.976 0:00.393
3 6 Tino Kerkow 1:33.942 0:02.359
4 3 Christian Baedorf 1:34.064 0:02.481
5 5 Alex Krueger 1:34.127 0:02.544

Runde 4

Pos Rennpos Fahrer Zeit Diff
1 2 Eric Nieth 1:31.488 -
2 1 Dietmar Scholz 1:31.631 0:00.143
3 6 Tino Kerkow 1:33.279 0:01.791
4 7 André G. 1:33.669 0:02.181
5 3 Christian Baedorf 1:34.546 0:03.058

Runde 5

Pos Rennpos Fahrer Zeit Diff
1 2 Eric Nieth 1:31.055 -
2 1 Dietmar Scholz 1:31.339 0:00.284
3 5 Tino Kerkow 1:33.488 0:02.433
4 6 André G. 1:33.573 0:02.518
5 3 Christian Baedorf 1:33.856 0:02.801

Runde 6

Pos Rennpos Fahrer Zeit Diff
1 2 Eric Nieth 1:31.481 -
2 1 Dietmar Scholz 1:32.132 0:00.651
3 5 André G. 1:34.275 0:02.794
4 6 Alex Krueger 1:34.284 0:02.803
5 4 Tino Kerkow 1:34.371 0:02.890

Runde 7

Pos Rennpos Fahrer Zeit Diff
1 1 Eric Nieth 1:31.843 -
2 2 Dietmar Scholz 1:33.014 0:01.171
3 3 Nils Herbstrieth 1:34.559 0:02.716
4 5 Christian Baedorf 1:34.824 0:02.981
5 4 Tino Kerkow 1:34.894 0:03.051

Runde 8

Pos Rennpos Fahrer Zeit Diff
1 1 Dietmar Scholz 1:32.214 -
2 4 Alex Krueger 1:32.972 0:00.758
3 2 Eric Nieth 1:33.119 0:00.905
4 5 André G. 1:33.709 0:01.495
5 3 Tino Kerkow 1:34.216 0:02.002

Runde 9

Pos Rennpos Fahrer Zeit Diff
1 4 Alex Krueger 1:33.471 -
2 3 Tino Kerkow 1:33.527 0:00.056
3 5 André G. 1:33.652 0:00.181
4 7 Christian Baedorf 1:34.249 0:00.778
5 1 Dietmar Scholz 1:34.412 0:00.941

Runde 10

Pos Rennpos Fahrer Zeit Diff
1 2 Eric Nieth 1:32.634 -
2 6 Nils Herbstrieth 1:33.321 0:00.687
3 4 André G. 1:34.119 0:01.485
4 3 Alex Krueger 1:34.659 0:02.025
5 7 Christian Baedorf 1:34.720 0:02.086

Runde 11

Pos Rennpos Fahrer Zeit Diff
1 1 Dietmar Scholz 1:31.856 -
2 2 Eric Nieth 1:32.776 0:00.920
3 3 André G. 1:33.187 0:01.331
4 4 Alex Krueger 1:33.961 0:02.105
5 5 Nils Herbstrieth 1:34.225 0:02.369

Runde 12

Pos Rennpos Fahrer Zeit Diff
1 1 Dietmar Scholz 1:32.189 -
2 4 Alex Krueger 1:32.636 0:00.447
3 3 André G. 1:32.833 0:00.644
4 2 Eric Nieth 1:33.009 0:00.820
5 5 Nils Herbstrieth 1:33.380 0:01.191

Runde 13

Pos Rennpos Fahrer Zeit Diff
1 1 Dietmar Scholz 1:31.317 -
2 2 Eric Nieth 1:32.739 0:01.422
3 3 André G. 1:33.063 0:01.746
4 5 Tino Kerkow 1:33.174 0:01.857
5 4 Nils Herbstrieth 1:33.836 0:02.519

Runde 14

Pos Rennpos Fahrer Zeit Diff
1 1 Dietmar Scholz 1:31.870 -
2 5 Alex Krueger 1:33.127 0:01.257
3 3 André G. 1:33.181 0:01.311
4 4 Nils Herbstrieth 1:33.641 0:01.771
5 2 Eric Nieth 1:34.870 0:03.000

Runde 15

Pos Rennpos Fahrer Zeit Diff
1 2 Eric Nieth 1:32.474 -
2 1 Dietmar Scholz 1:32.475 -
3 3 André G. 1:32.704 0:00.230
4 5 Alex Krueger 1:33.545 0:01.071
5 4 Nils Herbstrieth 1:33.780 0:01.306

Runde 16

Pos Rennpos Fahrer Zeit Diff
1 1 Dietmar Scholz 1:32.091 -
2 3 André G. 1:33.082 0:00.991
3 5 Alex Krueger 1:33.281 0:01.190
4 4 Nils Herbstrieth 1:33.381 0:01.290
5 7 Christian Baedorf 1:34.067 0:01.976

Runde 17

Pos Rennpos Fahrer Zeit Diff
1 1 Dietmar Scholz 1:31.850 -
2 3 André G. 1:32.947 0:01.097
3 2 Eric Nieth 1:33.057 0:01.207
4 6 Tino Kerkow 1:34.202 0:02.352
5 5 Alex Krueger 1:34.401 0:02.551

Runde 18

Pos Rennpos Fahrer Zeit Diff
1 1 Dietmar Scholz 1:31.625 -
2 4 Alex Krueger 1:32.485 0:00.860
3 3 André G. 1:32.959 0:01.334
4 2 Eric Nieth 1:34.071 0:02.446
5 6 Tino Kerkow 1:34.612 0:02.987

Runde 19

Pos Rennpos Fahrer Zeit Diff
1 1 Dietmar Scholz 1:31.780 -
2 4 Alex Krueger 1:32.395 0:00.615
3 3 André G. 1:32.689 0:00.909
4 2 Eric Nieth 1:33.314 0:01.534
5 5 Nils Herbstrieth 1:34.119 0:02.339

Runde 20

Pos Rennpos Fahrer Zeit Diff
1 4 Alex Krueger 1:32.728 -
2 2 Eric Nieth 1:33.129 0:00.401
3 1 Dietmar Scholz 1:33.151 0:00.423
4 3 André G. 1:33.501 0:00.773
5 6 Tino Kerkow 1:33.995 0:01.267

SERVER

0 / 61
virtualracing.org #1 GTM
Training 1Lime Rock Park -- Uphill Chicane
0 / 81
virtualracing.org #3 FS
Training 1Oulton Park International NC
0 / 81
virtualracing.org #4 LSM
Training 1Spa-Francorchamps Endurance
0 / 34
virtualracing.org #5 VRF1S
Training 1Zandvoort 2021
1 / 34
virtualracing.org #6 VRCS
Training 1Donington Park National Circuit
0 / 81
virtualracing.org #P1 BTCC
Training 1Oulton Park International NC
0 / 81
virtualracing.org #P2 CA
Training 1Silverstone Grand Prix
0 / 34
virtualracing.org #P3 Mini
Training 1Silverstone National
0 / 33
virtualracing.org #P4 IR18
Training 1Indianapolis Road Course
0/31
virtualracing.org#4 GTC Training Standard
TrainingDaytona International Speedway - Road Course
0/31
virtualracing.org#5 GTC Training A
TrainingDaytona International Speedway - Road Course
0/24
virtualracing.org#30 ALT Training
TrainingFuji Speedway - Grand Prix Circuit 1968
0/32
virtualracing.org#33 GTC Starttest
TrainingDaytona International Speedway - Road Course